Stations météo

Publicité
Weeze/Niederrhein, Allemagne (10405): Température de l'air & dewpoint: 12.09.2018 17:00:00 - 18.09.2018 17:00:00 (CEST)Weeze/Niederrhein, Allemagne (10405): Vitesse du vent: 12.09.2018 17:00:00 - 18.09.2018 17:00:00 (CEST)Weeze/Niederrhein, Allemagne (10405): Direction du vent: 12.09.2018 17:00:00 - 18.09.2018 17:00:00 (CEST)Weeze/Niederrhein, Allemagne (10405): visibility: 12.09.2018 17:00:00 - 18.09.2018 17:00:00 (CEST)
Date & Time tt [°C] td [°C] ff [km/h] ff [knt] dd vv [km]
18.09.2018 17:00:00 29,0 9,0 31 17 WSW 10
18.09.2018 16:00:00 29,0 11,0 24 13 SW 10
18.09.2018 15:00:00 29,0 11,0 26 14 SW 10
18.09.2018 14:00:00 29,0 12,0 24 13 SW 10
18.09.2018 13:00:00 28,0 14,0 22 12 SSW 10
18.09.2018 12:00:00 26,0 14,0 22 12 SW 10
18.09.2018 11:00:00 25,0 13,0 21 11 SSW 10
18.09.2018 10:00:00 22,0 11,0 16 9 S 10
18.09.2018 09:00:00 19,0 11,0 16 9 SE 10
18.09.2018 08:00:00 18,0 10,0 15 8 SE 10
18.09.2018 07:00:00 17,0 10,0 15 8 ESE 10
18.09.2018 06:00:00 16,0 9,0 15 8 ESE 10
18.09.2018 05:00:00 16,0 8,0 13 7 ESE 10
18.09.2018 04:00:00 - - - - - -
18.09.2018 03:00:00 - - - - - -
18.09.2018 02:00:00 - - - - - -
18.09.2018 01:00:00 - - - - - -
18.09.2018 00:00:00 14,0 8,0 5 3 ESE 10
17.09.2018 23:00:00 16,0 8,0 0 0 N 10
17.09.2018 22:00:00 17,0 7,0 4 2 ESE 10
17.09.2018 21:00:00 19,0 7,0 5 3 SE 10
17.09.2018 20:00:00 22,0 7,0 4 2 ESE 10
17.09.2018 19:00:00 26,0 6,0 8 4 S 10
17.09.2018 18:00:00 26,0 6,0 11 6 S 10
17.09.2018 17:00:00 26,0 5,0 9 5 - 10
17.09.2018 16:00:00 26,0 8,0 11 6 S 10
17.09.2018 15:00:00 26,0 7,0 11 6 SSW 10
17.09.2018 14:00:00 24,0 9,0 11 6 SSW 10
17.09.2018 13:00:00 23,0 10,0 13 7 SW 10
17.09.2018 12:00:00 21,0 11,0 9 5 SSW 10
17.09.2018 11:00:00 19,0 12,0 8 4 SSE 10
17.09.2018 10:00:00 16,0 12,0 8 4 S 10
17.09.2018 09:00:00 12,0 12,0 5 3 - 10
17.09.2018 08:00:00 10,0 10,0 0 0 N 10
17.09.2018 07:00:00 10,0 10,0 4 2 - 10
17.09.2018 06:00:00 10,0 10,0 5 3 - 10
17.09.2018 05:00:00 11,0 11,0 5 3 - 10
17.09.2018 04:00:00 - - - - - -
17.09.2018 03:00:00 - - - - - -
17.09.2018 02:00:00 - - - - - -
17.09.2018 01:00:00 - - - - - -
17.09.2018 00:00:00 13,0 10,0 0 0 N 10
16.09.2018 23:00:00 14,0 9,0 0 0 N 10
16.09.2018 22:00:00 15,0 9,0 4 2 SE 10
16.09.2018 21:00:00 19,0 9,0 0 0 N 10
16.09.2018 20:00:00 21,0 9,0 0 0 N 10
16.09.2018 19:00:00 22,0 9,0 5 3 - 10
16.09.2018 18:00:00 23,0 8,0 11 6 S 10
16.09.2018 17:00:00 23,0 8,0 11 6 S 10
16.09.2018 16:00:00 23,0 8,0 13 7 SSW 10
16.09.2018 15:00:00 23,0 9,0 15 8 SW 10
16.09.2018 14:00:00 22,0 9,0 13 7 SW 10
16.09.2018 13:00:00 21,0 10,0 13 7 SSW 10
16.09.2018 12:00:00 20,0 11,0 11 6 S 10
16.09.2018 11:00:00 18,0 11,0 11 6 S 10
16.09.2018 10:00:00 16,0 11,0 9 5 S 10
16.09.2018 09:00:00 12,0 11,0 11 6 SSE 10
16.09.2018 08:00:00 10,0 10,0 9 5 SE 10
16.09.2018 07:00:00 10,0 10,0 9 5 SSE 10
16.09.2018 06:00:00 10,0 10,0 9 5 SE 10
16.09.2018 05:00:00 10,0 10,0 5 3 SE 10
16.09.2018 04:00:00 - - - - - -
16.09.2018 03:00:00 - - - - - -
16.09.2018 02:00:00 - - - - - -
16.09.2018 01:00:00 - - - - - -
16.09.2018 00:00:00 11,0 11,0 4 2 ESE 10
15.09.2018 23:00:00 13,0 11,0 0 0 N 10
15.09.2018 22:00:00 13,0 12,0 0 0 N 10
15.09.2018 21:00:00 14,0 10,0 2 1 ESE 10
15.09.2018 20:00:00 17,0 10,0 4 2 - 10
15.09.2018 19:00:00 19,0 10,0 9 5 W 10
15.09.2018 18:00:00 19,0 9,0 18 10 W 10
15.09.2018 17:00:00 19,0 10,0 15 8 W 10
15.09.2018 16:00:00 19,0 9,0 11 6 W 10
15.09.2018 15:00:00 19,0 9,0 8 4 - 10
15.09.2018 14:00:00 19,0 9,0 13 7 W 10
15.09.2018 13:00:00 18,0 11,0 18 10 W 10
15.09.2018 12:00:00 18,0 10,0 16 9 W 10
15.09.2018 11:00:00 16,0 13,0 16 9 WSW 10
15.09.2018 10:00:00 14,0 13,0 11 6 SSW 10
15.09.2018 09:00:00 13,0 13,0 11 6 SW 10
15.09.2018 08:00:00 12,0 12,0 13 7 SSW 10
15.09.2018 07:00:00 11,0 11,0 11 6 SSW 10
15.09.2018 06:00:00 11,0 11,0 9 5 SSW 10
15.09.2018 05:00:00 12,0 11,0 9 5 SSW 10
15.09.2018 04:00:00 - - - - - -
15.09.2018 03:00:00 - - - - - -
15.09.2018 02:00:00 - - - - - -
15.09.2018 01:00:00 - - - - - -
15.09.2018 00:00:00 13,0 9,0 5 3 - 10
14.09.2018 23:00:00 15,0 9,0 9 5 W 10
14.09.2018 22:00:00 15,0 9,0 5 3 WSW 10
14.09.2018 21:00:00 16,0 9,0 9 5 W 10
14.09.2018 20:00:00 17,0 9,0 9 5 WNW 10
14.09.2018 19:00:00 18,0 8,0 16 9 W 10
14.09.2018 18:00:00 19,0 7,0 21 11 W 10
14.09.2018 17:00:00 20,0 6,0 16 9 W 10
14.09.2018 16:00:00 20,0 6,0 15 8 W 10
14.09.2018 15:00:00 20,0 6,0 15 8 SW 10
14.09.2018 14:00:00 20,0 6,0 13 7 WSW 10
14.09.2018 13:00:00 19,0 7,0 15 8 SW 10
14.09.2018 12:00:00 18,0 9,0 8 4 - 10
14.09.2018 11:00:00 16,0 11,0 9 5 SW 10
14.09.2018 10:00:00 13,0 12,0 5 3 - 10
14.09.2018 09:00:00 11,0 11,0 0 0 N 10
14.09.2018 08:00:00 7,0 7,0 0 0 N 10
14.09.2018 07:00:00 7,0 7,0 0 0 N 10
14.09.2018 06:00:00 7,0 7,0 0 0 N 10
14.09.2018 05:00:00 8,0 8,0 0 0 N 10
14.09.2018 04:00:00 - - - - - -
14.09.2018 03:00:00 - - - - - -
14.09.2018 02:00:00 - - - - - -
14.09.2018 01:00:00 - - - - - -
14.09.2018 00:00:00 14,0 8,0 4 2 - 10
13.09.2018 23:00:00 15,0 8,0 5 3 - 10
13.09.2018 22:00:00 15,0 8,0 0 0 N 10
13.09.2018 21:00:00 17,0 7,0 4 2 - 10
13.09.2018 20:00:00 18,0 8,0 0 0 N 10
13.09.2018 19:00:00 19,0 7,0 5 3 - 10
13.09.2018 18:00:00 20,0 6,0 4 2 - 10
13.09.2018 17:00:00 19,0 5,0 8 4 - 10
13.09.2018 16:00:00 19,0 7,0 9 5 - 10
13.09.2018 15:00:00 19,0 9,0 9 5 - 10
13.09.2018 14:00:00 18,0 9,0 8 4 - 10
13.09.2018 13:00:00 18,0 10,0 9 5 NNE 10
13.09.2018 12:00:00 17,0 11,0 8 4 - 10
13.09.2018 11:00:00 15,0 11,0 9 5 NNE 10
13.09.2018 10:00:00 14,0 12,0 8 4 NNE 10
13.09.2018 09:00:00 13,0 12,0 5 3 - 10
13.09.2018 08:00:00 13,0 13,0 5 3 - 10
13.09.2018 07:00:00 13,0 13,0 5 3 - 10
13.09.2018 06:00:00 13,0 13,0 5 3 - 10
13.09.2018 05:00:00 13,0 13,0 5 3 - 10
13.09.2018 04:00:00 - - - - - -
13.09.2018 03:00:00 - - - - - -
13.09.2018 02:00:00 - - - - - -
13.09.2018 01:00:00 - - - - - -
13.09.2018 00:00:00 14,0 13,0 5 3 - 10
12.09.2018 23:00:00 15,0 12,0 8 4 NNE 10
12.09.2018 22:00:00 15,0 12,0 9 5 NNE 10
12.09.2018 21:00:00 16,0 13,0 5 3 - 10
12.09.2018 20:00:00 16,0 12,0 5 3 - 10
12.09.2018 19:00:00 16,0 14,0 8 4 NNE 10
12.09.2018 18:00:00 16,0 13,0 8 4 NNE 10
12.09.2018 17:00:00 16,0 14,0 8 4 NNE 10

tt = Température de l'air
td = dewpoint
ff = Vitesse du vent
dd = Direction du vent
vv = visibility

stations d'obs. à proximité